sensor_id;sensor_type;location;lat;lon;timestamp;P1;durP1;ratioP1;P2;durP2;ratioP2
994;SDS011;486;48.726;8.964;2022-11-20T00:01:19;9.57;;;6.13;;
994;SDS011;486;48.726;8.964;2022-11-20T00:03:50;5.85;;;5.28;;
994;SDS011;486;48.726;8.964;2022-11-20T00:06:23;6.38;;;5.50;;
994;SDS011;486;48.726;8.964;2022-11-20T00:08:54;8.30;;;5.95;;
994;SDS011;486;48.726;8.964;2022-11-20T00:11:26;7.00;;;5.43;;
994;SDS011;486;48.726;8.964;2022-11-20T00:13:56;6.47;;;5.43;;
994;SDS011;486;48.726;8.964;2022-11-20T00:16:29;5.97;;;5.45;;
994;SDS011;486;48.726;8.964;2022-11-20T00:19:00;8.60;;;5.97;;
994;SDS011;486;48.726;8.964;2022-11-20T00:21:32;6.03;;;5.10;;
994;SDS011;486;48.726;8.964;2022-11-20T00:24:01;8.38;;;5.90;;
994;SDS011;486;48.726;8.964;2022-11-20T00:26:30;7.25;;;6.03;;
994;SDS011;486;48.726;8.964;2022-11-20T00:28:59;6.78;;;6.00;;
994;SDS011;486;48.726;8.964;2022-11-20T00:31:30;6.85;;;6.03;;
994;SDS011;486;48.726;8.964;2022-11-20T00:33:59;6.53;;;5.88;;
994;SDS011;486;48.726;8.964;2022-11-20T00:36:31;7.35;;;6.03;;
994;SDS011;486;48.726;8.964;2022-11-20T00:39:03;8.70;;;7.05;;
994;SDS011;486;48.726;8.964;2022-11-20T00:41:32;8.02;;;6.78;;
994;SDS011;486;48.726;8.964;2022-11-20T00:44:01;7.72;;;6.93;;
994;SDS011;486;48.726;8.964;2022-11-20T00:46:30;7.80;;;6.38;;
994;SDS011;486;48.726;8.964;2022-11-20T00:48:59;6.57;;;5.88;;
994;SDS011;486;48.726;8.964;2022-11-20T00:51:28;7.82;;;6.18;;
994;SDS011;486;48.726;8.964;2022-11-20T00:54:00;6.40;;;5.80;;
994;SDS011;486;48.726;8.964;2022-11-20T00:56:29;8.52;;;6.00;;
994;SDS011;486;48.726;8.964;2022-11-20T00:58:59;6.68;;;5.97;;
994;SDS011;486;48.726;8.964;2022-11-20T01:01:28;6.53;;;5.93;;
994;SDS011;486;48.726;8.964;2022-11-20T01:03:58;7.18;;;5.95;;
994;SDS011;486;48.726;8.964;2022-11-20T01:06:28;7.05;;;6.35;;
994;SDS011;486;48.726;8.964;2022-11-20T01:09:03;6.47;;;5.75;;
994;SDS011;486;48.726;8.964;2022-11-20T01:11:35;7.88;;;5.72;;
994;SDS011;486;48.726;8.964;2022-11-20T01:14:06;6.13;;;5.07;;
994;SDS011;486;48.726;8.964;2022-11-20T01:16:40;6.97;;;5.72;;
994;SDS011;486;48.726;8.964;2022-11-20T01:19:11;7.10;;;5.80;;
994;SDS011;486;48.726;8.964;2022-11-20T01:21:43;5.97;;;4.93;;
994;SDS011;486;48.726;8.964;2022-11-20T01:24:17;6.35;;;4.80;;
994;SDS011;486;48.726;8.964;2022-11-20T01:26:49;6.97;;;5.30;;
994;SDS011;486;48.726;8.964;2022-11-20T01:29:20;5.55;;;5.05;;
994;SDS011;486;48.726;8.964;2022-11-20T01:31:51;5.22;;;4.28;;
994;SDS011;486;48.726;8.964;2022-11-20T01:34:21;5.45;;;4.60;;
994;SDS011;486;48.726;8.964;2022-11-20T01:36:51;6.35;;;4.78;;
994;SDS011;486;48.726;8.964;2022-11-20T01:39:24;6.15;;;4.60;;
994;SDS011;486;48.726;8.964;2022-11-20T01:41:54;5.78;;;4.43;;
994;SDS011;486;48.726;8.964;2022-11-20T01:44:43;6.63;;;5.55;;
994;SDS011;486;48.726;8.964;2022-11-20T01:47:20;7.47;;;5.35;;
994;SDS011;486;48.726;8.964;2022-11-20T01:49:56;6.22;;;4.70;;
994;SDS011;486;48.726;8.964;2022-11-20T01:52:34;4.72;;;4.28;;
994;SDS011;486;48.726;8.964;2022-11-20T01:55:11;5.57;;;5.07;;
994;SDS011;486;48.726;8.964;2022-11-20T01:57:46;6.07;;;5.47;;
994;SDS011;486;48.726;8.964;2022-11-20T02:00:18;6.38;;;5.50;;
994;SDS011;486;48.726;8.964;2022-11-20T02:02:50;6.80;;;5.63;;
994;SDS011;486;48.726;8.964;2022-11-20T02:05:23;5.90;;;5.30;;
994;SDS011;486;48.726;8.964;2022-11-20T02:07:57;6.20;;;4.95;;
994;SDS011;486;48.726;8.964;2022-11-20T02:10:29;6.78;;;5.32;;
994;SDS011;486;48.726;8.964;2022-11-20T02:12:59;6.40;;;5.65;;
994;SDS011;486;48.726;8.964;2022-11-20T02:15:40;7.15;;;5.60;;
994;SDS011;486;48.726;8.964;2022-11-20T02:18:10;7.18;;;5.50;;
994;SDS011;486;48.726;8.964;2022-11-20T02:20:42;6.80;;;5.10;;
994;SDS011;486;48.726;8.964;2022-11-20T02:23:17;6.05;;;4.28;;
994;SDS011;486;48.726;8.964;2022-11-20T02:25:56;5.20;;;4.35;;
994;SDS011;486;48.726;8.964;2022-11-20T02:28:27;5.25;;;4.78;;
994;SDS011;486;48.726;8.964;2022-11-20T02:30:56;5.72;;;5.05;;
994;SDS011;486;48.726;8.964;2022-11-20T02:33:25;6.22;;;4.90;;
994;SDS011;486;48.726;8.964;2022-11-20T02:35:54;5.03;;;4.50;;
994;SDS011;486;48.726;8.964;2022-11-20T02:38:23;5.75;;;5.00;;
994;SDS011;486;48.726;8.964;2022-11-20T02:40:52;7.13;;;5.55;;
994;SDS011;486;48.726;8.964;2022-11-20T02:43:23;9.80;;;5.70;;
994;SDS011;486;48.726;8.964;2022-11-20T02:45:53;7.75;;;5.88;;
994;SDS011;486;48.726;8.964;2022-11-20T02:48:22;6.43;;;5.63;;
994;SDS011;486;48.726;8.964;2022-11-20T02:50:51;7.97;;;6.55;;
994;SDS011;486;48.726;8.964;2022-11-20T02:53:20;9.60;;;6.22;;
994;SDS011;486;48.726;8.964;2022-11-20T02:55:48;7.18;;;6.00;;
994;SDS011;486;48.726;8.964;2022-11-20T02:58:17;8.27;;;6.50;;
994;SDS011;486;48.726;8.964;2022-11-20T03:00:49;6.72;;;5.70;;
994;SDS011;486;48.726;8.964;2022-11-20T03:03:18;8.15;;;6.70;;
994;SDS011;486;48.726;8.964;2022-11-20T03:05:47;9.40;;;6.63;;
994;SDS011;486;48.726;8.964;2022-11-20T03:08:16;9.55;;;6.55;;
994;SDS011;486;48.726;8.964;2022-11-20T03:10:45;8.82;;;7.10;;
994;SDS011;486;48.726;8.964;2022-11-20T03:13:14;8.38;;;6.75;;
994;SDS011;486;48.726;8.964;2022-11-20T03:15:43;7.10;;;5.72;;
994;SDS011;486;48.726;8.964;2022-11-20T03:18:15;8.98;;;7.07;;
994;SDS011;486;48.726;8.964;2022-11-20T03:20:44;7.95;;;6.82;;
994;SDS011;486;48.726;8.964;2022-11-20T03:23:12;8.80;;;7.90;;
994;SDS011;486;48.726;8.964;2022-11-20T03:25:41;7.05;;;5.82;;
994;SDS011;486;48.726;8.964;2022-11-20T03:28:10;7.85;;;6.25;;
994;SDS011;486;48.726;8.964;2022-11-20T03:30:39;8.88;;;7.22;;
994;SDS011;486;48.726;8.964;2022-11-20T03:33:08;9.27;;;7.03;;
994;SDS011;486;48.726;8.964;2022-11-20T03:35:40;10.07;;;7.05;;
994;SDS011;486;48.726;8.964;2022-11-20T03:38:09;10.52;;;8.15;;
994;SDS011;486;48.726;8.964;2022-11-20T03:40:38;10.63;;;7.78;;
994;SDS011;486;48.726;8.964;2022-11-20T03:43:09;21.70;;;7.63;;
994;SDS011;486;48.726;8.964;2022-11-20T03:45:38;10.48;;;7.70;;
994;SDS011;486;48.726;8.964;2022-11-20T03:48:07;9.05;;;7.30;;
994;SDS011;486;48.726;8.964;2022-11-20T03:50:36;8.73;;;6.97;;
994;SDS011;486;48.726;8.964;2022-11-20T03:53:07;10.05;;;7.25;;
994;SDS011;486;48.726;8.964;2022-11-20T03:55:36;9.10;;;8.15;;
994;SDS011;486;48.726;8.964;2022-11-20T03:58:05;7.45;;;6.68;;
994;SDS011;486;48.726;8.964;2022-11-20T04:00:34;10.30;;;6.25;;
994;SDS011;486;48.726;8.964;2022-11-20T04:03:03;8.50;;;7.25;;
994;SDS011;486;48.726;8.964;2022-11-20T04:05:32;8.65;;;6.30;;
994;SDS011;486;48.726;8.964;2022-11-20T04:08:01;10.40;;;6.70;;
994;SDS011;486;48.726;8.964;2022-11-20T04:13:05;8.00;;;6.55;;
994;SDS011;486;48.726;8.964;2022-11-20T04:15:34;9.65;;;7.10;;
994;SDS011;486;48.726;8.964;2022-11-20T04:18:03;8.57;;;7.50;;
994;SDS011;486;48.726;8.964;2022-11-20T04:20:32;8.23;;;7.20;;
994;SDS011;486;48.726;8.964;2022-11-20T04:23:01;9.70;;;7.70;;
994;SDS011;486;48.726;8.964;2022-11-20T04:25:30;9.70;;;7.95;;
994;SDS011;486;48.726;8.964;2022-11-20T04:28:01;9.40;;;8.13;;
994;SDS011;486;48.726;8.964;2022-11-20T04:30:31;8.75;;;7.22;;
994;SDS011;486;48.726;8.964;2022-11-20T04:33:00;9.70;;;7.63;;
994;SDS011;486;48.726;8.964;2022-11-20T04:35:29;9.73;;;8.02;;
994;SDS011;486;48.726;8.964;2022-11-20T04:37:57;9.23;;;7.55;;
994;SDS011;486;48.726;8.964;2022-11-20T04:40:27;8.55;;;6.78;;
994;SDS011;486;48.726;8.964;2022-11-20T04:42:56;9.95;;;7.30;;
994;SDS011;486;48.726;8.964;2022-11-20T04:45:28;10.38;;;8.10;;
994;SDS011;486;48.726;8.964;2022-11-20T04:47:57;9.65;;;7.38;;
994;SDS011;486;48.726;8.964;2022-11-20T04:50:26;7.25;;;6.55;;
994;SDS011;486;48.726;8.964;2022-11-20T04:52:55;7.93;;;7.10;;
994;SDS011;486;48.726;8.964;2022-11-20T04:55:24;9.98;;;7.78;;
994;SDS011;486;48.726;8.964;2022-11-20T04:57:53;9.43;;;7.05;;
994;SDS011;486;48.726;8.964;2022-11-20T05:00:22;7.53;;;6.53;;
994;SDS011;486;48.726;8.964;2022-11-20T05:02:53;7.30;;;6.18;;
994;SDS011;486;48.726;8.964;2022-11-20T05:05:22;8.30;;;6.85;;
994;SDS011;486;48.726;8.964;2022-11-20T05:07:51;9.25;;;7.15;;
994;SDS011;486;48.726;8.964;2022-11-20T05:10:20;8.50;;;6.40;;
994;SDS011;486;48.726;8.964;2022-11-20T05:12:49;10.23;;;6.57;;
994;SDS011;486;48.726;8.964;2022-11-20T05:15:19;7.70;;;6.35;;
994;SDS011;486;48.726;8.964;2022-11-20T05:17:48;8.60;;;7.00;;
994;SDS011;486;48.726;8.964;2022-11-20T05:20:20;8.32;;;6.40;;
994;SDS011;486;48.726;8.964;2022-11-20T05:22:49;9.55;;;7.20;;
994;SDS011;486;48.726;8.964;2022-11-20T05:25:18;6.90;;;6.20;;
994;SDS011;486;48.726;8.964;2022-11-20T05:27:47;7.28;;;6.55;;
994;SDS011;486;48.726;8.964;2022-11-20T05:30:16;7.60;;;6.90;;
994;SDS011;486;48.726;8.964;2022-11-20T05:32:45;8.18;;;6.45;;
994;SDS011;486;48.726;8.964;2022-11-20T05:35:14;7.00;;;6.22;;
994;SDS011;486;48.726;8.964;2022-11-20T05:37:46;7.85;;;6.18;;
994;SDS011;486;48.726;8.964;2022-11-20T05:40:15;7.95;;;6.60;;
994;SDS011;486;48.726;8.964;2022-11-20T05:42:44;7.32;;;5.95;;
994;SDS011;486;48.726;8.964;2022-11-20T05:45:13;6.68;;;5.63;;
994;SDS011;486;48.726;8.964;2022-11-20T05:47:42;8.35;;;6.03;;
994;SDS011;486;48.726;8.964;2022-11-20T05:50:11;7.53;;;6.72;;
994;SDS011;486;48.726;8.964;2022-11-20T05:52:40;6.72;;;6.07;;
994;SDS011;486;48.726;8.964;2022-11-20T05:55:12;7.10;;;6.40;;
994;SDS011;486;48.726;8.964;2022-11-20T05:57:41;6.82;;;4.70;;
994;SDS011;486;48.726;8.964;2022-11-20T06:00:10;6.13;;;5.53;;
994;SDS011;486;48.726;8.964;2022-11-20T06:02:41;6.38;;;5.75;;
994;SDS011;486;48.726;8.964;2022-11-20T06:05:10;6.85;;;5.88;;
994;SDS011;486;48.726;8.964;2022-11-20T06:07:39;6.18;;;5.63;;
994;SDS011;486;48.726;8.964;2022-11-20T06:10:08;6.30;;;5.43;;
994;SDS011;486;48.726;8.964;2022-11-20T06:12:40;5.55;;;5.05;;
994;SDS011;486;48.726;8.964;2022-11-20T06:15:09;6.25;;;5.40;;
994;SDS011;486;48.726;8.964;2022-11-20T06:17:38;5.97;;;4.78;;
994;SDS011;486;48.726;8.964;2022-11-20T06:20:08;6.03;;;4.80;;
994;SDS011;486;48.726;8.964;2022-11-20T06:22:38;6.35;;;4.93;;
994;SDS011;486;48.726;8.964;2022-11-20T06:25:07;5.43;;;4.75;;
994;SDS011;486;48.726;8.964;2022-11-20T06:27:39;4.25;;;3.90;;
994;SDS011;486;48.726;8.964;2022-11-20T06:30:09;4.85;;;4.40;;
994;SDS011;486;48.726;8.964;2022-11-20T06:32:39;4.40;;;4.00;;
994;SDS011;486;48.726;8.964;2022-11-20T06:35:09;4.35;;;4.03;;
994;SDS011;486;48.726;8.964;2022-11-20T06:37:38;4.70;;;4.30;;
994;SDS011;486;48.726;8.964;2022-11-20T06:40:08;5.35;;;4.65;;
994;SDS011;486;48.726;8.964;2022-11-20T06:42:41;4.78;;;4.35;;
994;SDS011;486;48.726;8.964;2022-11-20T06:45:10;5.28;;;4.85;;
994;SDS011;486;48.726;8.964;2022-11-20T06:47:39;5.20;;;4.72;;
994;SDS011;486;48.726;8.964;2022-11-20T06:50:08;5.82;;;5.22;;
994;SDS011;486;48.726;8.964;2022-11-20T06:52:37;6.10;;;5.55;;
994;SDS011;486;48.726;8.964;2022-11-20T06:55:07;5.80;;;5.25;;
994;SDS011;486;48.726;8.964;2022-11-20T06:57:36;6.22;;;4.63;;
994;SDS011;486;48.726;8.964;2022-11-20T07:00:08;5.28;;;4.78;;
994;SDS011;486;48.726;8.964;2022-11-20T07:02:39;6.95;;;5.10;;
994;SDS011;486;48.726;8.964;2022-11-20T07:05:08;5.18;;;4.68;;
994;SDS011;486;48.726;8.964;2022-11-20T07:07:37;5.28;;;4.63;;
994;SDS011;486;48.726;8.964;2022-11-20T07:10:06;4.03;;;3.65;;
994;SDS011;486;48.726;8.964;2022-11-20T07:12:37;4.97;;;4.47;;
994;SDS011;486;48.726;8.964;2022-11-20T07:15:09;5.18;;;4.55;;
994;SDS011;486;48.726;8.964;2022-11-20T07:17:38;4.60;;;4.20;;
994;SDS011;486;48.726;8.964;2022-11-20T07:20:07;4.88;;;4.47;;
994;SDS011;486;48.726;8.964;2022-11-20T07:22:38;5.35;;;4.15;;
994;SDS011;486;48.726;8.964;2022-11-20T07:25:07;5.13;;;4.63;;
994;SDS011;486;48.726;8.964;2022-11-20T07:27:38;5.13;;;4.22;;
994;SDS011;486;48.726;8.964;2022-11-20T07:30:10;5.15;;;4.65;;
994;SDS011;486;48.726;8.964;2022-11-20T07:32:41;5.07;;;4.57;;
994;SDS011;486;48.726;8.964;2022-11-20T07:35:10;5.53;;;5.03;;
994;SDS011;486;48.726;8.964;2022-11-20T07:37:39;6.20;;;4.28;;
994;SDS011;486;48.726;8.964;2022-11-20T07:40:09;4.88;;;4.40;;
994;SDS011;486;48.726;8.964;2022-11-20T07:42:46;6.10;;;3.97;;
994;SDS011;486;48.726;8.964;2022-11-20T07:45:19;4.78;;;4.35;;
994;SDS011;486;48.726;8.964;2022-11-20T07:47:51;4.40;;;4.00;;
994;SDS011;486;48.726;8.964;2022-11-20T07:50:20;4.43;;;3.65;;
994;SDS011;486;48.726;8.964;2022-11-20T07:52:49;3.08;;;2.88;;
994;SDS011;486;48.726;8.964;2022-11-20T07:55:18;3.25;;;2.92;;
994;SDS011;486;48.726;8.964;2022-11-20T07:57:53;3.33;;;3.03;;
994;SDS011;486;48.726;8.964;2022-11-20T08:00:26;3.55;;;3.05;;
994;SDS011;486;48.726;8.964;2022-11-20T08:02:55;3.17;;;2.88;;
994;SDS011;486;48.726;8.964;2022-11-20T08:05:24;2.50;;;2.30;;
994;SDS011;486;48.726;8.964;2022-11-20T08:07:53;3.25;;;3.05;;
994;SDS011;486;48.726;8.964;2022-11-20T08:10:22;2.60;;;2.40;;
994;SDS011;486;48.726;8.964;2022-11-20T08:12:52;3.13;;;2.85;;
994;SDS011;486;48.726;8.964;2022-11-20T08:15:37;2.45;;;2.25;;
994;SDS011;486;48.726;8.964;2022-11-20T08:18:07;3.03;;;2.70;;
994;SDS011;486;48.726;8.964;2022-11-20T08:20:39;2.35;;;2.15;;
994;SDS011;486;48.726;8.964;2022-11-20T08:23:08;2.38;;;2.17;;
994;SDS011;486;48.726;8.964;2022-11-20T08:25:37;3.15;;;2.85;;
994;SDS011;486;48.726;8.964;2022-11-20T08:28:07;3.35;;;2.75;;
994;SDS011;486;48.726;8.964;2022-11-20T08:30:40;2.35;;;1.90;;
994;SDS011;486;48.726;8.964;2022-11-20T08:33:08;3.20;;;3.00;;
994;SDS011;486;48.726;8.964;2022-11-20T08:35:38;2.60;;;2.40;;
994;SDS011;486;48.726;8.964;2022-11-20T08:38:08;3.55;;;3.25;;
994;SDS011;486;48.726;8.964;2022-11-20T08:40:37;4.80;;;4.35;;
994;SDS011;486;48.726;8.964;2022-11-20T08:43:06;3.25;;;3.05;;
994;SDS011;486;48.726;8.964;2022-11-20T08:45:35;2.83;;;2.35;;
994;SDS011;486;48.726;8.964;2022-11-20T08:48:07;3.30;;;3.00;;
994;SDS011;486;48.726;8.964;2022-11-20T08:50:36;3.55;;;3.25;;
994;SDS011;486;48.726;8.964;2022-11-20T08:53:05;2.40;;;2.17;;
994;SDS011;486;48.726;8.964;2022-11-20T08:55:34;2.35;;;2.15;;
994;SDS011;486;48.726;8.964;2022-11-20T08:58:05;2.20;;;2.10;;
994;SDS011;486;48.726;8.964;2022-11-20T09:04:22;1.65;;;1.55;;
994;SDS011;486;48.726;8.964;2022-11-20T09:06:50;3.75;;;2.70;;
994;SDS011;486;48.726;8.964;2022-11-20T09:09:19;1.52;;;1.40;;
994;SDS011;486;48.726;8.964;2022-11-20T09:11:48;1.35;;;1.25;;
994;SDS011;486;48.726;8.964;2022-11-20T09:14:17;1.80;;;1.70;;
994;SDS011;486;48.726;8.964;2022-11-20T09:16:46;1.77;;;1.67;;
994;SDS011;486;48.726;8.964;2022-11-20T09:26:24;1.30;;;1.20;;
994;SDS011;486;48.726;8.964;2022-11-20T09:28:53;1.10;;;1.10;;
994;SDS011;486;48.726;8.964;2022-11-20T09:31:24;0.80;;;0.80;;
994;SDS011;486;48.726;8.964;2022-11-20T09:33:53;1.73;;;1.25;;
994;SDS011;486;48.726;8.964;2022-11-20T09:36:22;1.00;;;1.00;;
994;SDS011;486;48.726;8.964;2022-11-20T09:38:51;1.63;;;1.10;;
994;SDS011;486;48.726;8.964;2022-11-20T09:41:34;1.25;;;1.15;;
994;SDS011;486;48.726;8.964;2022-11-20T09:44:26;1.13;;;1.08;;
994;SDS011;486;48.726;8.964;2022-11-20T09:47:15;1.33;;;1.23;;
994;SDS011;486;48.726;8.964;2022-11-20T09:49:59;1.95;;;1.85;;
994;SDS011;486;48.726;8.964;2022-11-20T09:52:48;3.20;;;2.90;;
994;SDS011;486;48.726;8.964;2022-11-20T09:55:29;2.22;;;2.08;;
994;SDS011;486;48.726;8.964;2022-11-20T09:58:02;1.67;;;1.58;;
994;SDS011;486;48.726;8.964;2022-11-20T10:00:35;1.80;;;1.70;;
994;SDS011;486;48.726;8.964;2022-11-20T10:03:05;2.72;;;1.90;;
994;SDS011;486;48.726;8.964;2022-11-20T10:05:45;3.20;;;2.95;;
994;SDS011;486;48.726;8.964;2022-11-20T10:08:19;1.40;;;1.30;;
994;SDS011;486;48.726;8.964;2022-11-20T10:10:56;1.90;;;1.80;;
994;SDS011;486;48.726;8.964;2022-11-20T10:13:38;2.25;;;2.05;;
994;SDS011;486;48.726;8.964;2022-11-20T10:16:18;2.67;;;2.47;;
994;SDS011;486;48.726;8.964;2022-11-20T10:19:03;3.80;;;3.50;;
994;SDS011;486;48.726;8.964;2022-11-20T10:21:52;1.50;;;1.40;;
994;SDS011;486;48.726;8.964;2022-11-20T10:27:29;2.75;;;2.45;;
994;SDS011;486;48.726;8.964;2022-11-20T10:30:40;1.90;;;1.80;;
994;SDS011;486;48.726;8.964;2022-11-20T10:33:13;1.13;;;1.10;;
994;SDS011;486;48.726;8.964;2022-11-20T10:35:48;3.28;;;1.92;;
994;SDS011;486;48.726;8.964;2022-11-20T10:38:23;1.60;;;1.50;;
994;SDS011;486;48.726;8.964;2022-11-20T10:40:59;1.50;;;1.40;;
994;SDS011;486;48.726;8.964;2022-11-20T10:43:42;1.55;;;1.45;;
994;SDS011;486;48.726;8.964;2022-11-20T10:46:15;1.80;;;1.70;;
994;SDS011;486;48.726;8.964;2022-11-20T10:48:47;1.88;;;1.77;;
994;SDS011;486;48.726;8.964;2022-11-20T10:51:30;4.55;;;1.75;;
994;SDS011;486;48.726;8.964;2022-11-20T10:54:10;3.15;;;2.40;;
994;SDS011;486;48.726;8.964;2022-11-20T10:56:47;2.00;;;1.90;;
994;SDS011;486;48.726;8.964;2022-11-20T10:59:32;2.35;;;2.13;;
994;SDS011;486;48.726;8.964;2022-11-20T11:02:19;2.72;;;2.45;;
994;SDS011;486;48.726;8.964;2022-11-20T11:04:50;2.58;;;2.25;;
994;SDS011;486;48.726;8.964;2022-11-20T11:07:22;3.30;;;2.50;;
994;SDS011;486;48.726;8.964;2022-11-20T11:09:56;2.35;;;2.08;;
994;SDS011;486;48.726;8.964;2022-11-20T11:12:26;3.28;;;2.53;;
994;SDS011;486;48.726;8.964;2022-11-20T11:14:57;3.00;;;2.42;;
994;SDS011;486;48.726;8.964;2022-11-20T11:17:30;2.35;;;2.15;;
994;SDS011;486;48.726;8.964;2022-11-20T11:20:03;2.55;;;1.90;;
994;SDS011;486;48.726;8.964;2022-11-20T11:22:44;2.40;;;2.20;;
994;SDS011;486;48.726;8.964;2022-11-20T11:25:23;2.53;;;2.33;;
994;SDS011;486;48.726;8.964;2022-11-20T11:27:59;6.72;;;2.70;;
994;SDS011;486;48.726;8.964;2022-11-20T11:30:30;2.58;;;2.45;;
994;SDS011;486;48.726;8.964;2022-11-20T11:33:19;2.45;;;2.25;;
994;SDS011;486;48.726;8.964;2022-11-20T11:35:50;8.10;;;2.30;;
994;SDS011;486;48.726;8.964;2022-11-20T11:38:23;2.43;;;2.07;;
994;SDS011;486;48.726;8.964;2022-11-20T11:40:59;2.28;;;1.70;;
994;SDS011;486;48.726;8.964;2022-11-20T11:43:30;2.10;;;2.00;;
994;SDS011;486;48.726;8.964;2022-11-20T11:46:21;1.90;;;1.70;;
994;SDS011;486;48.726;8.964;2022-11-20T11:48:59;2.22;;;2.03;;
994;SDS011;486;48.726;8.964;2022-11-20T11:51:38;1.92;;;1.83;;
994;SDS011;486;48.726;8.964;2022-11-20T11:54:26;2.10;;;1.90;;
994;SDS011;486;48.726;8.964;2022-11-20T11:57:01;3.60;;;2.10;;
994;SDS011;486;48.726;8.964;2022-11-20T11:59:43;1.75;;;1.65;;
994;SDS011;486;48.726;8.964;2022-11-20T12:02:35;2.10;;;1.70;;
994;SDS011;486;48.726;8.964;2022-11-20T12:05:21;2.05;;;1.80;;
994;SDS011;486;48.726;8.964;2022-11-20T12:07:53;3.00;;;1.70;;
994;SDS011;486;48.726;8.964;2022-11-20T12:10:33;2.13;;;1.60;;
994;SDS011;486;48.726;8.964;2022-11-20T12:13:15;2.03;;;1.80;;
994;SDS011;486;48.726;8.964;2022-11-20T12:15:53;1.75;;;1.65;;
994;SDS011;486;48.726;8.964;2022-11-20T12:18:22;1.38;;;1.30;;
994;SDS011;486;48.726;8.964;2022-11-20T12:20:56;1.77;;;1.67;;
994;SDS011;486;48.726;8.964;2022-11-20T12:23:40;3.00;;;1.60;;
994;SDS011;486;48.726;8.964;2022-11-20T12:26:27;1.87;;;1.53;;
994;SDS011;486;48.726;8.964;2022-11-20T12:29:15;1.87;;;1.77;;
994;SDS011;486;48.726;8.964;2022-11-20T12:31:56;1.90;;;1.77;;
994;SDS011;486;48.726;8.964;2022-11-20T12:34:52;1.47;;;1.37;;
994;SDS011;486;48.726;8.964;2022-11-20T12:37:36;1.40;;;1.30;;
994;SDS011;486;48.726;8.964;2022-11-20T12:40:20;1.83;;;1.53;;
994;SDS011;486;48.726;8.964;2022-11-20T12:42:59;1.10;;;1.03;;
994;SDS011;486;48.726;8.964;2022-11-20T12:46:03;1.10;;;1.10;;
994;SDS011;486;48.726;8.964;2022-11-20T12:48:51;1.30;;;1.20;;
994;SDS011;486;48.726;8.964;2022-11-20T12:51:35;1.33;;;1.30;;
994;SDS011;486;48.726;8.964;2022-11-20T12:54:32;2.00;;;1.40;;
994;SDS011;486;48.726;8.964;2022-11-20T12:57:27;1.20;;;1.20;;
994;SDS011;486;48.726;8.964;2022-11-20T13:00:10;1.20;;;1.13;;
994;SDS011;486;48.726;8.964;2022-11-20T13:02:55;2.30;;;1.20;;
994;SDS011;486;48.726;8.964;2022-11-20T13:05:58;1.40;;;1.30;;
994;SDS011;486;48.726;8.964;2022-11-20T13:08:36;1.50;;;1.40;;
994;SDS011;486;48.726;8.964;2022-11-20T13:11:12;2.20;;;1.80;;
994;SDS011;486;48.726;8.964;2022-11-20T13:13:52;1.13;;;1.13;;
994;SDS011;486;48.726;8.964;2022-11-20T13:16:34;1.53;;;1.43;;
994;SDS011;486;48.726;8.964;2022-11-20T13:19:13;2.50;;;1.50;;
994;SDS011;486;48.726;8.964;2022-11-20T13:21:44;2.27;;;1.60;;
994;SDS011;486;48.726;8.964;2022-11-20T13:24:25;1.87;;;1.40;;
994;SDS011;486;48.726;8.964;2022-11-20T13:27:04;1.40;;;1.30;;
994;SDS011;486;48.726;8.964;2022-11-20T13:29:58;1.93;;;1.17;;
994;SDS011;486;48.726;8.964;2022-11-20T13:32:47;2.40;;;1.53;;
994;SDS011;486;48.726;8.964;2022-11-20T13:35:25;2.10;;;1.60;;
994;SDS011;486;48.726;8.964;2022-11-20T13:38:01;1.65;;;1.33;;
994;SDS011;486;48.726;8.964;2022-11-20T13:40:36;1.50;;;1.40;;
994;SDS011;486;48.726;8.964;2022-11-20T13:43:10;1.55;;;1.45;;
994;SDS011;486;48.726;8.964;2022-11-20T13:45:54;11.73;;;8.88;;
994;SDS011;486;48.726;8.964;2022-11-20T13:48:26;3.08;;;2.78;;
994;SDS011;486;48.726;8.964;2022-11-20T13:51:07;2.65;;;1.90;;
994;SDS011;486;48.726;8.964;2022-11-20T13:53:57;1.63;;;1.50;;
994;SDS011;486;48.726;8.964;2022-11-20T13:56:47;2.15;;;1.90;;
994;SDS011;486;48.726;8.964;2022-11-20T13:59:31;2.00;;;1.90;;
994;SDS011;486;48.726;8.964;2022-11-20T14:02:11;1.77;;;1.67;;
994;SDS011;486;48.726;8.964;2022-11-20T14:04:44;1.60;;;1.50;;
994;SDS011;486;48.726;8.964;2022-11-20T14:07:15;3.27;;;1.83;;
994;SDS011;486;48.726;8.964;2022-11-20T14:09:50;1.67;;;1.57;;
994;SDS011;486;48.726;8.964;2022-11-20T14:12:22;2.20;;;2.00;;
994;SDS011;486;48.726;8.964;2022-11-20T14:14:58;1.80;;;1.70;;
994;SDS011;486;48.726;8.964;2022-11-20T14:17:30;2.20;;;2.00;;
994;SDS011;486;48.726;8.964;2022-11-20T14:20:02;2.30;;;2.10;;
994;SDS011;486;48.726;8.964;2022-11-20T14:22:34;2.97;;;2.78;;
994;SDS011;486;48.726;8.964;2022-11-20T14:25:06;1.77;;;1.65;;
994;SDS011;486;48.726;8.964;2022-11-20T14:27:50;2.40;;;1.80;;
994;SDS011;486;48.726;8.964;2022-11-20T14:30:24;1.98;;;1.88;;
994;SDS011;486;48.726;8.964;2022-11-20T14:32:57;1.83;;;1.65;;
994;SDS011;486;48.726;8.964;2022-11-20T14:35:35;3.03;;;1.90;;
994;SDS011;486;48.726;8.964;2022-11-20T14:38:13;2.25;;;2.05;;
994;SDS011;486;48.726;8.964;2022-11-20T14:40:45;3.03;;;2.83;;
994;SDS011;486;48.726;8.964;2022-11-20T14:43:18;2.42;;;2.22;;
994;SDS011;486;48.726;8.964;2022-11-20T14:45:59;2.40;;;2.20;;
994;SDS011;486;48.726;8.964;2022-11-20T14:48:32;2.45;;;1.98;;
994;SDS011;486;48.726;8.964;2022-11-20T14:51:08;4.25;;;2.85;;
994;SDS011;486;48.726;8.964;2022-11-20T14:53:38;3.08;;;2.58;;
994;SDS011;486;48.726;8.964;2022-11-20T14:56:07;2.97;;;2.20;;
994;SDS011;486;48.726;8.964;2022-11-20T14:58:37;2.45;;;2.25;;
994;SDS011;486;48.726;8.964;2022-11-20T15:01:11;2.95;;;2.65;;
994;SDS011;486;48.726;8.964;2022-11-20T15:03:41;4.45;;;2.10;;
994;SDS011;486;48.726;8.964;2022-11-20T15:06:11;2.80;;;2.45;;
994;SDS011;486;48.726;8.964;2022-11-20T15:08:50;2.95;;;2.22;;
994;SDS011;486;48.726;8.964;2022-11-20T15:11:27;2.80;;;2.50;;
994;SDS011;486;48.726;8.964;2022-11-20T15:13:58;2.38;;;2.17;;
994;SDS011;486;48.726;8.964;2022-11-20T15:16:35;3.45;;;3.10;;
994;SDS011;486;48.726;8.964;2022-11-20T15:19:05;2.50;;;2.30;;
994;SDS011;486;48.726;8.964;2022-11-20T15:21:47;3.53;;;2.40;;
994;SDS011;486;48.726;8.964;2022-11-20T15:24:16;3.95;;;3.00;;
994;SDS011;486;48.726;8.964;2022-11-20T15:26:45;3.97;;;3.58;;
994;SDS011;486;48.726;8.964;2022-11-20T15:29:15;2.80;;;2.45;;
994;SDS011;486;48.726;8.964;2022-11-20T15:31:55;2.85;;;2.55;;
994;SDS011;486;48.726;8.964;2022-11-20T15:34:24;3.55;;;2.85;;
994;SDS011;486;48.726;8.964;2022-11-20T15:36:55;3.20;;;2.90;;
994;SDS011;486;48.726;8.964;2022-11-20T15:39:24;3.13;;;2.83;;
994;SDS011;486;48.726;8.964;2022-11-20T15:41:53;3.10;;;2.90;;
994;SDS011;486;48.726;8.964;2022-11-20T15:44:22;3.90;;;3.50;;
994;SDS011;486;48.726;8.964;2022-11-20T15:46:51;4.63;;;3.28;;
994;SDS011;486;48.726;8.964;2022-11-20T15:49:22;5.03;;;3.60;;
994;SDS011;486;48.726;8.964;2022-11-20T15:51:51;6.10;;;4.53;;
994;SDS011;486;48.726;8.964;2022-11-20T15:54:21;6.95;;;5.68;;
994;SDS011;486;48.726;8.964;2022-11-20T15:56:50;14.93;;;10.02;;
994;SDS011;486;48.726;8.964;2022-11-20T15:59:20;11.07;;;7.30;;
994;SDS011;486;48.726;8.964;2022-11-20T16:01:49;10.15;;;6.40;;
994;SDS011;486;48.726;8.964;2022-11-20T16:04:18;8.65;;;6.60;;
994;SDS011;486;48.726;8.964;2022-11-20T16:06:50;6.50;;;5.45;;
994;SDS011;486;48.726;8.964;2022-11-20T16:09:19;5.57;;;5.05;;
994;SDS011;486;48.726;8.964;2022-11-20T16:11:48;5.82;;;5.15;;
994;SDS011;486;48.726;8.964;2022-11-20T16:14:17;4.63;;;4.22;;
994;SDS011;486;48.726;8.964;2022-11-20T16:16:59;4.90;;;4.50;;
994;SDS011;486;48.726;8.964;2022-11-20T16:19:28;5.35;;;4.95;;
994;SDS011;486;48.726;8.964;2022-11-20T16:22:00;5.22;;;4.70;;
994;SDS011;486;48.726;8.964;2022-11-20T16:24:29;4.65;;;3.85;;
994;SDS011;486;48.726;8.964;2022-11-20T16:26:58;3.75;;;3.45;;
994;SDS011;486;48.726;8.964;2022-11-20T16:29:28;4.25;;;3.85;;
994;SDS011;486;48.726;8.964;2022-11-20T16:31:57;4.78;;;4.38;;
994;SDS011;486;48.726;8.964;2022-11-20T16:34:26;4.30;;;3.95;;
994;SDS011;486;48.726;8.964;2022-11-20T16:36:55;4.28;;;3.88;;
994;SDS011;486;48.726;8.964;2022-11-20T16:39:27;3.17;;;2.88;;